sensor_id;sensor_type;location;lat;lon;timestamp;pressure;altitude;pressure_sealevel;temperature;humidity
8286;BME280;4181;43.416;24.598;2023-04-06T00:01:41;99940.13;;;7.09;100.00
8286;BME280;4181;43.416;24.598;2023-04-06T00:04:07;99939.03;;;6.87;100.00
8286;BME280;4181;43.416;24.598;2023-04-06T00:06:32;99938.84;;;7.12;100.00
8286;BME280;4181;43.416;24.598;2023-04-06T00:08:59;99923.50;;;7.06;100.00
8286;BME280;4181;43.416;24.598;2023-04-06T00:11:25;99936.00;;;7.07;100.00
8286;BME280;4181;43.416;24.598;2023-04-06T00:13:51;99928.94;;;7.06;100.00
8286;BME280;4181;43.416;24.598;2023-04-06T00:16:16;99936.94;;;7.01;100.00
8286;BME280;4181;43.416;24.598;2023-04-06T00:18:42;99934.81;;;7.03;100.00
8286;BME280;4181;43.416;24.598;2023-04-06T00:21:07;99931.53;;;7.01;100.00
8286;BME280;4181;43.416;24.598;2023-04-06T00:23:33;99926.34;;;7.11;100.00
8286;BME280;4181;43.416;24.598;2023-04-06T00:26:00;99929.50;;;7.08;100.00
8286;BME280;4181;43.416;24.598;2023-04-06T00:28:25;99917.84;;;7.07;100.00
8286;BME280;4181;43.416;24.598;2023-04-06T00:30:54;99926.25;;;7.17;100.00
8286;BME280;4181;43.416;24.598;2023-04-06T00:33:21;99919.16;;;7.16;100.00
8286;BME280;4181;43.416;24.598;2023-04-06T00:35:47;99920.09;;;7.10;100.00
8286;BME280;4181;43.416;24.598;2023-04-06T00:38:13;99923.84;;;7.09;100.00
8286;BME280;4181;43.416;24.598;2023-04-06T00:40:39;99918.78;;;7.01;100.00
8286;BME280;4181;43.416;24.598;2023-04-06T00:43:07;99910.06;;;7.11;100.00
8286;BME280;4181;43.416;24.598;2023-04-06T00:45:34;99905.94;;;7.08;100.00
8286;BME280;4181;43.416;24.598;2023-04-06T00:48:00;99906.88;;;7.14;100.00
8286;BME280;4181;43.416;24.598;2023-04-06T00:50:27;99920.56;;;7.19;100.00
8286;BME280;4181;43.416;24.598;2023-04-06T00:52:53;99899.44;;;7.09;100.00
8286;BME280;4181;43.416;24.598;2023-04-06T00:55:18;99904.19;;;7.14;100.00
8286;BME280;4181;43.416;24.598;2023-04-06T00:57:44;99901.22;;;7.27;100.00
8286;BME280;4181;43.416;24.598;2023-04-06T01:00:09;99897.31;;;7.23;100.00
8286;BME280;4181;43.416;24.598;2023-04-06T01:02:37;99895.31;;;7.30;100.00
8286;BME280;4181;43.416;24.598;2023-04-06T01:05:04;99903.59;;;7.23;100.00
8286;BME280;4181;43.416;24.598;2023-04-06T01:07:29;99898.75;;;7.14;100.00
8286;BME280;4181;43.416;24.598;2023-04-06T01:09:55;99900.50;;;7.08;100.00
8286;BME280;4181;43.416;24.598;2023-04-06T01:12:20;99907.47;;;7.04;100.00
8286;BME280;4181;43.416;24.598;2023-04-06T01:14:46;99894.72;;;7.05;100.00
8286;BME280;4181;43.416;24.598;2023-04-06T01:17:11;99897.06;;;7.13;100.00
8286;BME280;4181;43.416;24.598;2023-04-06T01:19:37;99900.50;;;7.08;100.00
8286;BME280;4181;43.416;24.598;2023-04-06T01:22:02;99898.41;;;7.10;100.00
8286;BME280;4181;43.416;24.598;2023-04-06T01:24:28;99888.94;;;7.13;100.00
8286;BME280;4181;43.416;24.598;2023-04-06T01:26:53;99868.06;;;6.90;100.00
8286;BME280;4181;43.416;24.598;2023-04-06T01:29:19;99883.06;;;7.04;100.00
8286;BME280;4181;43.416;24.598;2023-04-06T01:31:45;99865.25;;;6.97;100.00
8286;BME280;4181;43.416;24.598;2023-04-06T01:34:12;99869.94;;;7.01;100.00
8286;BME280;4181;43.416;24.598;2023-04-06T01:36:38;99876.69;;;7.10;100.00
8286;BME280;4181;43.416;24.598;2023-04-06T01:39:03;99866.56;;;7.17;100.00
8286;BME280;4181;43.416;24.598;2023-04-06T01:41:28;99862.41;;;7.15;100.00
8286;BME280;4181;43.416;24.598;2023-04-06T01:43:54;99865.25;;;7.08;100.00
8286;BME280;4181;43.416;24.598;2023-04-06T01:46:20;99874.69;;;7.06;100.00
8286;BME280;4181;43.416;24.598;2023-04-06T01:48:45;99859.34;;;7.00;100.00
8286;BME280;4181;43.416;24.598;2023-04-06T01:51:11;99872.78;;;6.95;100.00
8286;BME280;4181;43.416;24.598;2023-04-06T01:53:36;99865.59;;;7.00;100.00
8286;BME280;4181;43.416;24.598;2023-04-06T01:56:02;99857.09;;;7.08;100.00
8286;BME280;4181;43.416;24.598;2023-04-06T01:58:27;99844.63;;;7.07;100.00
8286;BME280;4181;43.416;24.598;2023-04-06T02:00:53;99859.94;;;7.02;100.00
8286;BME280;4181;43.416;24.598;2023-04-06T02:03:19;99849.31;;;7.00;100.00
8286;BME280;4181;43.416;24.598;2023-04-06T02:05:45;99834.31;;;6.98;100.00
8286;BME280;4181;43.416;24.598;2023-04-06T02:08:11;99839.19;;;7.07;100.00
8286;BME280;4181;43.416;24.598;2023-04-06T02:10:36;99855.09;;;7.04;100.00
8286;BME280;4181;43.416;24.598;2023-04-06T02:13:02;99838.00;;;7.03;100.00
8286;BME280;4181;43.416;24.598;2023-04-06T02:15:27;99819.59;;;6.94;100.00
8286;BME280;4181;43.416;24.598;2023-04-06T02:17:54;99827.97;;;7.04;100.00
8286;BME280;4181;43.416;24.598;2023-04-06T02:20:20;99838.34;;;7.07;100.00
8286;BME280;4181;43.416;24.598;2023-04-06T02:22:45;99830.44;;;6.94;100.00
8286;BME280;4181;43.416;24.598;2023-04-06T02:25:11;99828.59;;;6.94;100.00
8286;BME280;4181;43.416;24.598;2023-04-06T02:27:37;99832.94;;;7.07;100.00
8286;BME280;4181;43.416;24.598;2023-04-06T02:30:03;99831.63;;;7.09;100.00
8286;BME280;4181;43.416;24.598;2023-04-06T02:32:29;99834.22;;;6.93;100.00
8286;BME280;4181;43.416;24.598;2023-04-06T02:34:54;99836.53;;;6.66;100.00
8286;BME280;4181;43.416;24.598;2023-04-06T02:37:20;99839.13;;;6.73;100.00
8286;BME280;4181;43.416;24.598;2023-04-06T02:39:46;99837.63;;;6.77;100.00
8286;BME280;4181;43.416;24.598;2023-04-06T02:42:12;99830.56;;;6.76;100.00
8286;BME280;4181;43.416;24.598;2023-04-06T02:44:37;99840.56;;;6.75;100.00
8286;BME280;4181;43.416;24.598;2023-04-06T02:47:03;99833.75;;;6.84;100.00
8286;BME280;4181;43.416;24.598;2023-04-06T02:49:28;99840.59;;;6.98;100.00
8286;BME280;4181;43.416;24.598;2023-04-06T02:51:53;99837.03;;;6.86;100.00
8286;BME280;4181;43.416;24.598;2023-04-06T02:54:19;99831.63;;;6.86;100.00
8286;BME280;4181;43.416;24.598;2023-04-06T02:56:44;99846.59;;;6.89;100.00
8286;BME280;4181;43.416;24.598;2023-04-06T02:59:10;99839.44;;;6.94;100.00
8286;BME280;4181;43.416;24.598;2023-04-06T03:01:36;99839.06;;;6.79;100.00
8286;BME280;4181;43.416;24.598;2023-04-06T03:04:01;99843.41;;;6.92;100.00
8286;BME280;4181;43.416;24.598;2023-04-06T03:06:27;99820.66;;;6.81;100.00
8286;BME280;4181;43.416;24.598;2023-04-06T03:08:52;99837.88;;;6.87;100.00
8286;BME280;4181;43.416;24.598;2023-04-06T03:11:18;99845.41;;;6.85;100.00
8286;BME280;4181;43.416;24.598;2023-04-06T03:13:44;99841.97;;;6.78;100.00
8286;BME280;4181;43.416;24.598;2023-04-06T03:16:09;99848.94;;;6.74;100.00
8286;BME280;4181;43.416;24.598;2023-04-06T03:18:35;99848.00;;;6.80;100.00
8286;BME280;4181;43.416;24.598;2023-04-06T03:21:00;99844.25;;;6.92;100.00
8286;BME280;4181;43.416;24.598;2023-04-06T03:23:26;99837.75;;;6.93;100.00
8286;BME280;4181;43.416;24.598;2023-04-06T03:25:51;99811.13;;;6.79;100.00
8286;BME280;4181;43.416;24.598;2023-04-06T03:28:17;99841.28;;;6.82;100.00
8286;BME280;4181;43.416;24.598;2023-04-06T03:30:42;99843.41;;;6.69;100.00
8286;BME280;4181;43.416;24.598;2023-04-06T03:33:08;99854.50;;;6.79;100.00
8286;BME280;4181;43.416;24.598;2023-04-06T03:35:34;99835.75;;;6.77;100.00
8286;BME280;4181;43.416;24.598;2023-04-06T03:37:59;99848.69;;;6.64;100.00
8286;BME280;4181;43.416;24.598;2023-04-06T03:40:25;99853.63;;;6.67;100.00
8286;BME280;4181;43.416;24.598;2023-04-06T03:42:50;99848.94;;;6.74;100.00
8286;BME280;4181;43.416;24.598;2023-04-06T03:45:16;99839.50;;;6.76;100.00
8286;BME280;4181;43.416;24.598;2023-04-06T03:47:42;99842.91;;;6.60;100.00
8286;BME280;4181;43.416;24.598;2023-04-06T03:50:07;99833.44;;;6.51;100.00
8286;BME280;4181;43.416;24.598;2023-04-06T03:52:34;99848.31;;;6.60;100.00
8286;BME280;4181;43.416;24.598;2023-04-06T03:54:59;99837.72;;;6.59;100.00
8286;BME280;4181;43.416;24.598;2023-04-06T03:57:25;99845.50;;;6.67;100.00
8286;BME280;4181;43.416;24.598;2023-04-06T03:59:50;99848.69;;;6.64;100.00
8286;BME280;4181;43.416;24.598;2023-04-06T04:02:15;99843.25;;;6.64;100.00
8286;BME280;4181;43.416;24.598;2023-04-06T04:04:41;99846.88;;;6.58;100.00
8286;BME280;4181;43.416;24.598;2023-04-06T04:07:06;99842.06;;;6.60;100.00
8286;BME280;4181;43.416;24.598;2023-04-06T04:09:33;99846.94;;;6.69;100.00
8286;BME280;4181;43.416;24.598;2023-04-06T04:11:59;99848.22;;;6.67;100.00
8286;BME280;4181;43.416;24.598;2023-04-06T04:14:24;99851.53;;;6.69;100.00
8286;BME280;4181;43.416;24.598;2023-04-06T04:16:50;99844.78;;;6.60;100.00
8286;BME280;4181;43.416;24.598;2023-04-06T04:19:16;99844.91;;;6.65;100.00
8286;BME280;4181;43.416;24.598;2023-04-06T04:21:44;99849.19;;;6.72;100.00
8286;BME280;4181;43.416;24.598;2023-04-06T04:24:10;99842.94;;;6.83;100.00
8286;BME280;4181;43.416;24.598;2023-04-06T04:26:36;99853.41;;;6.80;100.00
8286;BME280;4181;43.416;24.598;2023-04-06T04:29:01;99848.84;;;6.80;100.00
8286;BME280;4181;43.416;24.598;2023-04-06T04:31:28;99852.25;;;6.76;100.00
8286;BME280;4181;43.416;24.598;2023-04-06T04:33:53;99835.97;;;6.76;100.00
8286;BME280;4181;43.416;24.598;2023-04-06T04:36:19;99839.06;;;6.91;100.00
8286;BME280;4181;43.416;24.598;2023-04-06T04:38:45;99844.00;;;6.94;100.00
8286;BME280;4181;43.416;24.598;2023-04-06T04:41:10;99848.00;;;6.80;100.00
8286;BME280;4181;43.416;24.598;2023-04-06T04:43:36;99845.53;;;6.78;100.00
8286;BME280;4181;43.416;24.598;2023-04-06T04:46:01;99839.63;;;6.81;100.00
8286;BME280;4181;43.416;24.598;2023-04-06T04:48:27;99850.72;;;6.80;100.00
8286;BME280;4181;43.416;24.598;2023-04-06T04:50:53;99849.44;;;6.82;100.00
8286;BME280;4181;43.416;24.598;2023-04-06T04:53:20;99849.19;;;6.84;100.00
8286;BME280;4181;43.416;24.598;2023-04-06T04:55:45;99844.34;;;6.74;100.00
8286;BME280;4181;43.416;24.598;2023-04-06T04:58:11;99855.09;;;6.81;100.00
8286;BME280;4181;43.416;24.598;2023-04-06T05:00:40;99843.28;;;6.87;100.00
8286;BME280;4181;43.416;24.598;2023-04-06T05:03:06;99848.84;;;6.92;100.00
8286;BME280;4181;43.416;24.598;2023-04-06T05:05:32;99853.19;;;6.93;100.00
8286;BME280;4181;43.416;24.598;2023-04-06T05:07:57;99853.00;;;6.94;100.00
8286;BME280;4181;43.416;24.598;2023-04-06T05:10:22;99853.19;;;6.93;100.00
8286;BME280;4181;43.416;24.598;2023-04-06T05:12:48;99856.25;;;6.85;100.00
8286;BME280;4181;43.416;24.598;2023-04-06T05:15:13;99838.00;;;6.92;100.00
8286;BME280;4181;43.416;24.598;2023-04-06T05:17:39;99852.75;;;6.96;100.00
8286;BME280;4181;43.416;24.598;2023-04-06T05:20:05;99853.66;;;6.90;100.00
8286;BME280;4181;43.416;24.598;2023-04-06T05:22:33;99844.72;;;7.01;100.00
8286;BME280;4181;43.416;24.598;2023-04-06T05:24:58;99860.16;;;7.00;100.00
8286;BME280;4181;43.416;24.598;2023-04-06T05:27:24;99846.38;;;7.02;100.00
8286;BME280;4181;43.416;24.598;2023-04-06T05:29:50;99843.41;;;7.15;100.00
8286;BME280;4181;43.416;24.598;2023-04-06T05:32:16;99835.75;;;7.12;100.00
8286;BME280;4181;43.416;24.598;2023-04-06T05:34:41;99843.78;;;7.30;100.00
8286;BME280;4181;43.416;24.598;2023-04-06T05:37:07;99835.50;;;7.25;100.00
8286;BME280;4181;43.416;24.598;2023-04-06T05:39:32;99825.03;;;7.17;100.00
8286;BME280;4181;43.416;24.598;2023-04-06T05:41:58;99841.28;;;7.28;100.00
8286;BME280;4181;43.416;24.598;2023-04-06T05:44:23;99832.91;;;7.30;100.00
8286;BME280;4181;43.416;24.598;2023-04-06T05:46:49;99832.91;;;7.30;100.00
8286;BME280;4181;43.416;24.598;2023-04-06T05:49:14;99828.56;;;7.29;100.00
8286;BME280;4181;43.416;24.598;2023-04-06T05:51:40;99817.38;;;7.14;100.00
8286;BME280;4181;43.416;24.598;2023-04-06T05:54:05;99819.22;;;7.25;100.00
8286;BME280;4181;43.416;24.598;2023-04-06T05:56:31;99830.69;;;7.27;100.00
8286;BME280;4181;43.416;24.598;2023-04-06T05:58:58;99827.50;;;7.30;100.00
8286;BME280;4181;43.416;24.598;2023-04-06T06:01:23;99833.84;;;7.47;100.00
8286;BME280;4181;43.416;24.598;2023-04-06T06:03:49;99825.69;;;7.47;100.00
8286;BME280;4181;43.416;24.598;2023-04-06T06:06:14;99818.25;;;7.54;100.00
8286;BME280;4181;43.416;24.598;2023-04-06T06:08:40;99813.66;;;7.43;100.00
8286;BME280;4181;43.416;24.598;2023-04-06T06:11:07;99802.47;;;7.51;100.00
8286;BME280;4181;43.416;24.598;2023-04-06T06:13:32;99811.50;;;7.56;100.00
8286;BME280;4181;43.416;24.598;2023-04-06T06:15:58;99816.56;;;7.64;100.00
8286;BME280;4181;43.416;24.598;2023-04-06T06:18:23;99808.31;;;7.59;100.00
8286;BME280;4181;43.416;24.598;2023-04-06T06:20:49;99807.38;;;7.65;100.00
8286;BME280;4181;43.416;24.598;2023-04-06T06:23:14;99808.09;;;7.61;100.00
8286;BME280;4181;43.416;24.598;2023-04-06T06:25:40;99813.34;;;7.79;100.00
8286;BME280;4181;43.416;24.598;2023-04-06T06:28:05;99806.25;;;7.78;100.00
8286;BME280;4181;43.416;24.598;2023-04-06T06:30:31;99792.72;;;7.66;100.00
8286;BME280;4181;43.416;24.598;2023-04-06T06:32:56;99795.44;;;7.66;100.00
8286;BME280;4181;43.416;24.598;2023-04-06T06:35:22;99810.06;;;7.77;100.00
8286;BME280;4181;43.416;24.598;2023-04-06T06:37:47;99800.72;;;7.73;100.00
8286;BME280;4181;43.416;24.598;2023-04-06T06:40:13;99801.31;;;7.75;100.00
8286;BME280;4181;43.416;24.598;2023-04-06T06:42:41;99802.78;;;7.94;100.00
8286;BME280;4181;43.416;24.598;2023-04-06T06:45:07;99797.25;;;7.89;100.00
8286;BME280;4181;43.416;24.598;2023-04-06T06:47:33;99806.41;;;8.00;100.00
8286;BME280;4181;43.416;24.598;2023-04-06T06:49:58;99813.38;;;8.07;100.00
8286;BME280;4181;43.416;24.598;2023-04-06T06:52:24;99817.81;;;7.85;100.00
8286;BME280;4181;43.416;24.598;2023-04-06T06:54:50;99816.38;;;7.94;100.00
8286;BME280;4181;43.416;24.598;2023-04-06T06:57:15;99810.56;;;8.02;100.00
8286;BME280;4181;43.416;24.598;2023-04-06T06:59:41;99821.75;;;8.06;100.00
8286;BME280;4181;43.416;24.598;2023-04-06T07:02:06;99813.94;;;8.09;100.00
8286;BME280;4181;43.416;24.598;2023-04-06T07:04:32;99821.34;;;8.25;100.00
8286;BME280;4181;43.416;24.598;2023-04-06T07:06:57;99813.06;;;8.20;100.00
8286;BME280;4181;43.416;24.598;2023-04-06T07:09:22;99786.53;;;8.11;100.00
8286;BME280;4181;43.416;24.598;2023-04-06T07:11:48;99800.91;;;8.23;100.00
8286;BME280;4181;43.416;24.598;2023-04-06T07:14:15;99810.31;;;8.32;100.00
8286;BME280;4181;43.416;24.598;2023-04-06T07:16:41;99809.09;;;8.39;100.00
8286;BME280;4181;43.416;24.598;2023-04-06T07:19:06;99793.34;;;8.41;100.00
8286;BME280;4181;43.416;24.598;2023-04-06T07:21:34;99797.31;;;8.50;100.00
8286;BME280;4181;43.416;24.598;2023-04-06T07:24:00;99796.75;;;8.48;100.00
8286;BME280;4181;43.416;24.598;2023-04-06T07:26:26;99798.72;;;8.53;100.00
8286;BME280;4181;43.416;24.598;2023-04-06T07:28:52;99803.75;;;8.44;100.00
8286;BME280;4181;43.416;24.598;2023-04-06T07:31:18;99796.91;;;8.42;100.00
8286;BME280;4181;43.416;24.598;2023-04-06T07:33:43;99779.03;;;8.46;100.00
8286;BME280;4181;43.416;24.598;2023-04-06T07:36:08;99792.47;;;8.52;100.00
8286;BME280;4181;43.416;24.598;2023-04-06T07:38:34;99794.28;;;8.63;100.00
8286;BME280;4181;43.416;24.598;2023-04-06T07:40:59;99781.28;;;8.65;100.00
8286;BME280;4181;43.416;24.598;2023-04-06T07:43:28;99783.66;;;8.78;100.00
8286;BME280;4181;43.416;24.598;2023-04-06T07:45:53;99788.91;;;8.85;100.00
8286;BME280;4181;43.416;24.598;2023-04-06T07:48:19;99775.22;;;8.96;100.00
8286;BME280;4181;43.416;24.598;2023-04-06T07:50:45;99794.25;;;8.96;100.00
8286;BME280;4181;43.416;24.598;2023-04-06T07:53:10;99763.97;;;9.10;100.00
8286;BME280;4181;43.416;24.598;2023-04-06T07:55:36;99765.84;;;9.26;100.00
8286;BME280;4181;43.416;24.598;2023-04-06T07:58:01;99767.50;;;9.48;100.00
8286;BME280;4181;43.416;24.598;2023-04-06T08:00:27;99755.81;;;9.48;100.00
8286;BME280;4181;43.416;24.598;2023-04-06T08:02:53;99748.69;;;9.68;100.00
8286;BME280;4181;43.416;24.598;2023-04-06T08:05:19;99760.06;;;9.87;100.00
8286;BME280;4181;43.416;24.598;2023-04-06T08:07:44;99768.94;;;9.99;100.00
8286;BME280;4181;43.416;24.598;2023-04-06T08:10:10;99733.56;;;10.04;100.00
8286;BME280;4181;43.416;24.598;2023-04-06T08:12:35;99739.13;;;10.14;100.00
8286;BME280;4181;43.416;24.598;2023-04-06T08:15:01;99746.63;;;10.29;100.00
8286;BME280;4181;43.416;24.598;2023-04-06T08:17:27;99733.16;;;10.49;100.00
8286;BME280;4181;43.416;24.598;2023-04-06T08:19:55;99739.97;;;10.46;100.00
8286;BME280;4181;43.416;24.598;2023-04-06T08:22:21;99735.59;;;10.45;100.00
8286;BME280;4181;43.416;24.598;2023-04-06T08:24:46;99728.81;;;10.48;100.00
8286;BME280;4181;43.416;24.598;2023-04-06T08:27:11;99738.66;;;10.54;100.00
8286;BME280;4181;43.416;24.598;2023-04-06T08:29:39;99731.19;;;10.39;100.00
8286;BME280;4181;43.416;24.598;2023-04-06T08:32:04;99733.88;;;10.34;100.00
8286;BME280;4181;43.416;24.598;2023-04-06T08:34:32;99742.63;;;10.36;100.00
8286;BME280;4181;43.416;24.598;2023-04-06T08:36:57;99718.69;;;10.48;100.00
8286;BME280;4181;43.416;24.598;2023-04-06T08:39:23;99719.09;;;10.62;100.00
8286;BME280;4181;43.416;24.598;2023-04-06T08:41:51;99734.13;;;10.64;100.00
8286;BME280;4181;43.416;24.598;2023-04-06T08:44:18;99731.44;;;10.38;100.00
8286;BME280;4181;43.416;24.598;2023-04-06T08:46:43;99735.59;;;10.45;100.00
8286;BME280;4181;43.416;24.598;2023-04-06T08:49:09;99729.16;;;10.56;100.00
8286;BME280;4181;43.416;24.598;2023-04-06T08:51:36;99718.59;;;10.65;100.00
8286;BME280;4181;43.416;24.598;2023-04-06T08:54:02;99728.38;;;10.61;100.00
8286;BME280;4181;43.416;24.598;2023-04-06T08:56:28;99733.00;;;10.60;100.00
8286;BME280;4181;43.416;24.598;2023-04-06T08:58:54;99707.75;;;10.43;100.00
8286;BME280;4181;43.416;24.598;2023-04-06T09:01:23;99709.97;;;10.46;100.00
8286;BME280;4181;43.416;24.598;2023-04-06T09:03:49;99709.31;;;10.66;100.00
8286;BME280;4181;43.416;24.598;2023-04-06T09:06:15;99728.38;;;10.61;100.00
8286;BME280;4181;43.416;24.598;2023-04-06T09:08:42;99720.56;;;10.74;100.00
8286;BME280;4181;43.416;24.598;2023-04-06T09:11:08;99714.00;;;10.75;100.00
8286;BME280;4181;43.416;24.598;2023-04-06T09:13:45;99726.59;;;10.76;100.00
8286;BME280;4181;43.416;24.598;2023-04-06T09:16:11;99718.84;;;10.68;100.00
8286;BME280;4181;43.416;24.598;2023-04-06T09:18:36;99736.84;;;10.64;100.00
8286;BME280;4181;43.416;24.598;2023-04-06T09:21:04;99730.81;;;10.62;100.00
8286;BME280;4181;43.416;24.598;2023-04-06T09:23:30;99721.06;;;10.66;100.00
8286;BME280;4181;43.416;24.598;2023-04-06T09:28:59;99723.75;;;10.61;100.00
8286;BME280;4181;43.416;24.598;2023-04-06T09:31:31;99723.16;;;10.59;100.00
8286;BME280;4181;43.416;24.598;2023-04-06T09:34:00;99707.34;;;10.56;100.00
8286;BME280;4181;43.416;24.598;2023-04-06T09:36:33;99728.19;;;10.72;100.00
8286;BME280;4181;43.416;24.598;2023-04-06T09:39:01;99702.84;;;10.82;100.00
8286;BME280;4181;43.416;24.598;2023-04-06T09:41:34;99712.25;;;11.01;100.00
8286;BME280;4181;43.416;24.598;2023-04-06T09:46:34;99671.59;;;10.99;100.00
8286;BME280;4181;43.416;24.598;2023-04-06T09:49:02;99682.03;;;11.17;100.00
8286;BME280;4181;43.416;24.598;2023-04-06T09:51:30;99680.94;;;11.18;100.00
8286;BME280;4181;43.416;24.598;2023-04-06T09:53:56;99692.53;;;11.45;100.00
8286;BME280;4181;43.416;24.598;2023-04-06T09:56:45;99672.38;;;11.57;100.00
8286;BME280;4181;43.416;24.598;2023-04-06T09:59:22;99678.91;;;11.50;100.00
8286;BME280;4181;43.416;24.598;2023-04-06T10:01:52;99688.78;;;11.57;100.00
8286;BME280;4181;43.416;24.598;2023-04-06T10:06:59;99681.19;;;11.74;100.00
8286;BME280;4181;43.416;24.598;2023-04-06T10:09:28;99686.09;;;11.72;100.00
8286;BME280;4181;43.416;24.598;2023-04-06T10:12:07;99671.06;;;11.74;100.00
8286;BME280;4181;43.416;24.598;2023-04-06T10:14:34;99652.50;;;11.71;100.00
8286;BME280;4181;43.416;24.598;2023-04-06T10:17:05;99668.91;;;11.76;100.00
8286;BME280;4181;43.416;24.598;2023-04-06T10:19:52;99671.38;;;11.83;100.00
8286;BME280;4181;43.416;24.598;2023-04-06T10:25:08;99663.75;;;12.15;100.00
8286;BME280;4181;43.416;24.598;2023-04-06T10:27:34;99652.00;;;12.24;100.00
8286;BME280;4181;43.416;24.598;2023-04-06T10:30:04;99663.75;;;12.45;100.00
8286;BME280;4181;43.416;24.598;2023-04-06T10:32:37;99647.59;;;12.48;100.00
8286;BME280;4181;43.416;24.598;2023-04-06T10:35:10;99647.34;;;12.35;100.00
8286;BME280;4181;43.416;24.598;2023-04-06T10:37:49;99653.03;;;12.58;100.00
8286;BME280;4181;43.416;24.598;2023-04-06T10:40:30;99645.66;;;12.54;100.00
8286;BME280;4181;43.416;24.598;2023-04-06T10:43:27;99629.81;;;12.56;100.00
8286;BME280;4181;43.416;24.598;2023-04-06T10:45:56;99624.59;;;12.64;100.00
8286;BME280;4181;43.416;24.598;2023-04-06T10:48:22;99639.59;;;12.77;100.00
8286;BME280;4181;43.416;24.598;2023-04-06T10:50:50;99635.50;;;12.74;100.00
8286;BME280;4181;43.416;24.598;2023-04-06T10:53:26;99620.41;;;12.87;100.00
8286;BME280;4181;43.416;24.598;2023-04-06T10:55:54;99616.84;;;12.97;100.00
8286;BME280;4181;43.416;24.598;2023-04-06T10:58:24;99605.28;;;13.15;100.00
8286;BME280;4181;43.416;24.598;2023-04-06T11:00:50;99612.59;;;13.29;100.00
8286;BME280;4181;43.416;24.598;2023-04-06T11:03:16;99611.81;;;13.19;100.00
8286;BME280;4181;43.416;24.598;2023-04-06T11:05:46;99598.38;;;13.27;100.00
8286;BME280;4181;43.416;24.598;2023-04-06T11:08:32;99588.72;;;13.40;100.00
8286;BME280;4181;43.416;24.598;2023-04-06T11:11:11;99579.63;;;13.49;100.00
8286;BME280;4181;43.416;24.598;2023-04-06T11:13:52;99570.41;;;13.74;100.00
8286;BME280;4181;43.416;24.598;2023-04-06T11:16:19;99573.31;;;13.87;100.00
8286;BME280;4181;43.416;24.598;2023-04-06T11:18:55;99572.97;;;13.94;100.00
8286;BME280;4181;43.416;24.598;2023-04-06T11:21:45;99569.63;;;14.02;100.00
8286;BME280;4181;43.416;24.598;2023-04-06T11:29:05;99561.97;;;13.99;100.00
8286;BME280;4181;43.416;24.598;2023-04-06T11:31:31;99560.84;;;14.05;100.00
8286;BME280;4181;43.416;24.598;2023-04-06T11:33:57;99554.38;;;14.20;100.00
8286;BME280;4181;43.416;24.598;2023-04-06T11:36:23;99562.22;;;14.36;100.00
8286;BME280;4181;43.416;24.598;2023-04-06T11:38:48;99564.19;;;14.31;100.00
8286;BME280;4181;43.416;24.598;2023-04-06T11:41:14;99559.13;;;14.43;100.00
8286;BME280;4181;43.416;24.598;2023-04-06T11:43:46;99549.66;;;14.30;100.00
8286;BME280;4181;43.416;24.598;2023-04-06T11:46:17;99555.72;;;14.51;100.00
8286;BME280;4181;43.416;24.598;2023-04-06T11:48:44;99543.56;;;14.62;100.00
8286;BME280;4181;43.416;24.598;2023-04-06T11:51:10;99550.06;;;14.66;100.00
8286;BME280;4181;43.416;24.598;2023-04-06T11:53:43;99555.25;;;14.44;100.00
8286;BME280;4181;43.416;24.598;2023-04-06T11:56:09;99558.34;;;14.37;100.00
8286;BME280;4181;43.416;24.598;2023-04-06T11:58:35;99555.41;;;14.29;100.00
8286;BME280;4181;43.416;24.598;2023-04-06T12:01:04;99545.00;;;14.54;100.00
8286;BME280;4181;43.416;24.598;2023-04-06T12:03:30;99540.09;;;14.75;100.00
8286;BME280;4181;43.416;24.598;2023-04-06T12:05:55;99546.63;;;14.79;100.00
8286;BME280;4181;43.416;24.598;2023-04-06T12:08:20;99545.81;;;14.78;100.00
8286;BME280;4181;43.416;24.598;2023-04-06T12:10:50;99546.84;;;14.82;100.00
8286;BME280;4181;43.416;24.598;2023-04-06T12:13:19;99554.47;;;14.67;100.00
8286;BME280;4181;43.416;24.598;2023-04-06T12:15:44;99552.34;;;14.59;100.00
8286;BME280;4181;43.416;24.598;2023-04-06T12:18:09;99553.81;;;14.51;100.00
8286;BME280;4181;43.416;24.598;2023-04-06T12:20:35;99548.44;;;14.65;100.00
8286;BME280;4181;43.416;24.598;2023-04-06T12:23:01;99532.22;;;14.68;100.00
8286;BME280;4181;43.416;24.598;2023-04-06T12:25:26;99543.91;;;14.55;100.00
8286;BME280;4181;43.416;24.598;2023-04-06T12:27:55;99543.78;;;14.65;100.00
8286;BME280;4181;43.416;24.598;2023-04-06T12:30:21;99552.75;;;14.71;100.00
8286;BME280;4181;43.416;24.598;2023-04-06T12:32:47;99543.78;;;14.65;100.00
8286;BME280;4181;43.416;24.598;2023-04-06T12:35:12;99554.81;;;14.60;100.00
8286;BME280;4181;43.416;24.598;2023-04-06T12:37:42;99547.16;;;14.81;100.00
8286;BME280;4181;43.416;24.598;2023-04-06T12:40:08;99542.66;;;14.90;100.00
8286;BME280;4181;43.416;24.598;2023-04-06T12:42:36;99546.47;;;15.12;100.00
8286;BME280;4181;43.416;24.598;2023-04-06T12:45:01;99535.13;;;15.19;100.00
8286;BME280;4181;43.416;24.598;2023-04-06T12:47:27;99542.25;;;15.20;100.00
8286;BME280;4181;43.416;24.598;2023-04-06T12:49:53;99533.41;;;15.04;100.00
8286;BME280;4181;43.416;24.598;2023-04-06T12:52:19;99538.75;;;15.14;100.00
8286;BME280;4181;43.416;24.598;2023-04-06T12:54:45;99547.75;;;15.20;100.00
8286;BME280;4181;43.416;24.598;2023-04-06T12:57:10;99530.34;;;15.06;100.00
8286;BME280;4181;43.416;24.598;2023-04-06T12:59:36;99529.13;;;15.17;100.00
8286;BME280;4181;43.416;24.598;2023-04-06T13:02:03;99529.47;;;15.29;100.00
8286;BME280;4181;43.416;24.598;2023-04-06T13:04:29;99533.28;;;15.33;100.00
8286;BME280;4181;43.416;24.598;2023-04-06T13:06:54;99528.13;;;15.08;100.00
8286;BME280;4181;43.416;24.598;2023-04-06T13:09:22;99534.22;;;15.05;100.00
8286;BME280;4181;43.416;24.598;2023-04-06T13:11:48;99523.97;;;15.10;100.00
8286;BME280;4181;43.416;24.598;2023-04-06T13:14:13;99541.72;;;14.99;100.00
8286;BME280;4181;43.416;24.598;2023-04-06T13:16:39;99541.00;;;14.89;100.00
8286;BME280;4181;43.416;24.598;2023-04-06T13:19:04;99546.81;;;14.64;100.00
8286;BME280;4181;43.416;24.598;2023-04-06T13:21:30;99540.56;;;14.58;100.00